sensor_id;sensor_type;location;lat;lon;timestamp;P1;durP1;ratioP1;P2;durP2;ratioP2
39654;SDS011;25336;59.944;11.010;2023-05-29T00:01:41;1.88;;;1.10;;
39654;SDS011;25336;59.944;11.010;2023-05-29T00:04:07;2.85;;;1.33;;
39654;SDS011;25336;59.944;11.010;2023-05-29T00:06:32;0.90;;;0.90;;
39654;SDS011;25336;59.944;11.010;2023-05-29T00:08:58;2.00;;;1.30;;
39654;SDS011;25336;59.944;11.010;2023-05-29T00:11:23;2.58;;;1.33;;
39654;SDS011;25336;59.944;11.010;2023-05-29T00:13:49;1.50;;;1.35;;
39654;SDS011;25336;59.944;11.010;2023-05-29T00:16:15;2.35;;;1.00;;
39654;SDS011;25336;59.944;11.010;2023-05-29T00:18:42;2.92;;;1.13;;
39654;SDS011;25336;59.944;11.010;2023-05-29T00:21:10;2.55;;;1.17;;
39654;SDS011;25336;59.944;11.010;2023-05-29T00:23:39;2.28;;;1.00;;
39654;SDS011;25336;59.944;11.010;2023-05-29T00:26:05;2.28;;;1.00;;
39654;SDS011;25336;59.944;11.010;2023-05-29T00:28:31;2.45;;;1.17;;
39654;SDS011;25336;59.944;11.010;2023-05-29T00:30:56;1.40;;;1.08;;
39654;SDS011;25336;59.944;11.010;2023-05-29T00:33:22;1.00;;;1.00;;
39654;SDS011;25336;59.944;11.010;2023-05-29T00:35:47;3.00;;;1.42;;
39654;SDS011;25336;59.944;11.010;2023-05-29T00:38:13;1.83;;;1.20;;
39654;SDS011;25336;59.944;11.010;2023-05-29T00:40:41;1.38;;;1.20;;
39654;SDS011;25336;59.944;11.010;2023-05-29T00:43:07;1.77;;;1.25;;
39654;SDS011;25336;59.944;11.010;2023-05-29T00:45:32;2.20;;;1.63;;
39654;SDS011;25336;59.944;11.010;2023-05-29T00:48:01;6.25;;;1.30;;
39654;SDS011;25336;59.944;11.010;2023-05-29T00:50:28;2.30;;;1.30;;
39654;SDS011;25336;59.944;11.010;2023-05-29T00:52:54;2.63;;;1.50;;
39654;SDS011;25336;59.944;11.010;2023-05-29T00:55:20;2.78;;;1.40;;
39654;SDS011;25336;59.944;11.010;2023-05-29T00:57:45;1.98;;;1.13;;
39654;SDS011;25336;59.944;11.010;2023-05-29T01:00:12;2.33;;;1.25;;
39654;SDS011;25336;59.944;11.010;2023-05-29T01:02:39;2.85;;;1.50;;
39654;SDS011;25336;59.944;11.010;2023-05-29T01:05:09;3.45;;;1.25;;
39654;SDS011;25336;59.944;11.010;2023-05-29T01:07:36;1.85;;;1.20;;
39654;SDS011;25336;59.944;11.010;2023-05-29T01:10:02;1.77;;;1.17;;
39654;SDS011;25336;59.944;11.010;2023-05-29T01:21:06;1.73;;;1.30;;
39654;SDS011;25336;59.944;11.010;2023-05-29T01:26:22;1.85;;;1.23;;
39654;SDS011;25336;59.944;11.010;2023-05-29T01:29:10;2.50;;;1.30;;
39654;SDS011;25336;59.944;11.010;2023-05-29T01:31:39;1.83;;;1.13;;
39654;SDS011;25336;59.944;11.010;2023-05-29T01:34:06;1.20;;;1.10;;
39654;SDS011;25336;59.944;11.010;2023-05-29T01:36:32;2.75;;;1.30;;
39654;SDS011;25336;59.944;11.010;2023-05-29T01:38:58;2.08;;;1.48;;
39654;SDS011;25336;59.944;11.010;2023-05-29T01:41:25;1.70;;;1.40;;
39654;SDS011;25336;59.944;11.010;2023-05-29T01:43:51;2.80;;;1.10;;
39654;SDS011;25336;59.944;11.010;2023-05-29T01:46:17;2.15;;;1.25;;
39654;SDS011;25336;59.944;11.010;2023-05-29T01:48:45;2.60;;;1.70;;
39654;SDS011;25336;59.944;11.010;2023-05-29T01:51:11;1.85;;;1.23;;
39654;SDS011;25336;59.944;11.010;2023-05-29T01:53:38;2.65;;;1.40;;
39654;SDS011;25336;59.944;11.010;2023-05-29T01:56:08;1.30;;;0.88;;
39654;SDS011;25336;59.944;11.010;2023-05-29T01:58:34;1.83;;;1.05;;
39654;SDS011;25336;59.944;11.010;2023-05-29T02:01:03;1.60;;;1.20;;
39654;SDS011;25336;59.944;11.010;2023-05-29T02:03:29;1.88;;;1.08;;
39654;SDS011;25336;59.944;11.010;2023-05-29T02:05:56;2.38;;;1.40;;
39654;SDS011;25336;59.944;11.010;2023-05-29T02:08:23;2.60;;;1.80;;
39654;SDS011;25336;59.944;11.010;2023-05-29T02:10:48;2.78;;;1.15;;
39654;SDS011;25336;59.944;11.010;2023-05-29T02:13:14;2.05;;;1.10;;
39654;SDS011;25336;59.944;11.010;2023-05-29T02:15:40;3.13;;;1.30;;
39654;SDS011;25336;59.944;11.010;2023-05-29T02:18:08;1.92;;;0.90;;
39654;SDS011;25336;59.944;11.010;2023-05-29T02:20:37;5.75;;;1.75;;
39654;SDS011;25336;59.944;11.010;2023-05-29T02:23:02;2.08;;;1.00;;
39654;SDS011;25336;59.944;11.010;2023-05-29T02:25:28;2.20;;;1.42;;
39654;SDS011;25336;59.944;11.010;2023-05-29T02:27:54;3.35;;;1.20;;
39654;SDS011;25336;59.944;11.010;2023-05-29T02:30:19;2.78;;;1.40;;
39654;SDS011;25336;59.944;11.010;2023-05-29T02:32:45;3.67;;;1.60;;
39654;SDS011;25336;59.944;11.010;2023-05-29T02:35:11;2.33;;;1.30;;
39654;SDS011;25336;59.944;11.010;2023-05-29T02:37:40;3.17;;;1.13;;
39654;SDS011;25336;59.944;11.010;2023-05-29T02:40:06;2.20;;;1.38;;
39654;SDS011;25336;59.944;11.010;2023-05-29T02:42:33;1.55;;;1.02;;
39654;SDS011;25336;59.944;11.010;2023-05-29T02:44:58;2.08;;;1.20;;
39654;SDS011;25336;59.944;11.010;2023-05-29T02:47:24;3.30;;;0.93;;
39654;SDS011;25336;59.944;11.010;2023-05-29T02:49:50;1.85;;;1.40;;
39654;SDS011;25336;59.944;11.010;2023-05-29T02:52:15;2.58;;;1.33;;
39654;SDS011;25336;59.944;11.010;2023-05-29T02:54:41;1.95;;;1.20;;
39654;SDS011;25336;59.944;11.010;2023-05-29T02:57:06;3.75;;;1.50;;
39654;SDS011;25336;59.944;11.010;2023-05-29T02:59:32;3.72;;;1.70;;
39654;SDS011;25336;59.944;11.010;2023-05-29T03:01:58;3.55;;;1.15;;
39654;SDS011;25336;59.944;11.010;2023-05-29T03:04:23;4.45;;;1.45;;
39654;SDS011;25336;59.944;11.010;2023-05-29T03:06:49;4.53;;;1.35;;
39654;SDS011;25336;59.944;11.010;2023-05-29T03:09:15;2.15;;;1.38;;
39654;SDS011;25336;59.944;11.010;2023-05-29T03:11:41;2.38;;;1.42;;
39654;SDS011;25336;59.944;11.010;2023-05-29T03:14:07;2.08;;;1.20;;
39654;SDS011;25336;59.944;11.010;2023-05-29T03:16:33;3.35;;;1.90;;
39654;SDS011;25336;59.944;11.010;2023-05-29T03:19:02;4.85;;;1.92;;
39654;SDS011;25336;59.944;11.010;2023-05-29T03:21:27;4.60;;;1.92;;
39654;SDS011;25336;59.944;11.010;2023-05-29T03:23:53;3.63;;;1.75;;
39654;SDS011;25336;59.944;11.010;2023-05-29T03:26:19;3.40;;;1.58;;
39654;SDS011;25336;59.944;11.010;2023-05-29T03:28:44;2.55;;;1.30;;
39654;SDS011;25336;59.944;11.010;2023-05-29T03:31:10;7.32;;;1.42;;
39654;SDS011;25336;59.944;11.010;2023-05-29T03:33:35;3.25;;;1.65;;
39654;SDS011;25336;59.944;11.010;2023-05-29T03:36:01;2.15;;;1.17;;
39654;SDS011;25336;59.944;11.010;2023-05-29T03:38:27;2.70;;;1.20;;
39654;SDS011;25336;59.944;11.010;2023-05-29T03:40:54;4.38;;;1.30;;
39654;SDS011;25336;59.944;11.010;2023-05-29T03:43:20;1.67;;;1.15;;
39654;SDS011;25336;59.944;11.010;2023-05-29T03:45:45;3.58;;;1.15;;
39654;SDS011;25336;59.944;11.010;2023-05-29T03:48:11;1.15;;;1.00;;
39654;SDS011;25336;59.944;11.010;2023-05-29T03:50:36;3.42;;;1.63;;
39654;SDS011;25336;59.944;11.010;2023-05-29T03:53:02;3.00;;;1.30;;
39654;SDS011;25336;59.944;11.010;2023-05-29T03:55:28;2.63;;;1.20;;
39654;SDS011;25336;59.944;11.010;2023-05-29T03:57:53;4.03;;;1.33;;
39654;SDS011;25336;59.944;11.010;2023-05-29T04:00:19;2.05;;;1.27;;
39654;SDS011;25336;59.944;11.010;2023-05-29T04:02:45;2.58;;;1.35;;
39654;SDS011;25336;59.944;11.010;2023-05-29T04:05:10;5.53;;;1.50;;
39654;SDS011;25336;59.944;11.010;2023-05-29T04:07:38;3.53;;;1.25;;
39654;SDS011;25336;59.944;11.010;2023-05-29T04:10:04;3.10;;;1.85;;
39654;SDS011;25336;59.944;11.010;2023-05-29T04:12:31;2.40;;;1.48;;
39654;SDS011;25336;59.944;11.010;2023-05-29T04:14:57;3.42;;;1.50;;
39654;SDS011;25336;59.944;11.010;2023-05-29T04:17:23;3.00;;;1.20;;
39654;SDS011;25336;59.944;11.010;2023-05-29T04:19:49;8.98;;;1.38;;
39654;SDS011;25336;59.944;11.010;2023-05-29T04:22:15;3.13;;;1.40;;
39654;SDS011;25336;59.944;11.010;2023-05-29T04:24:41;1.38;;;1.02;;
39654;SDS011;25336;59.944;11.010;2023-05-29T04:27:09;3.78;;;1.52;;
39654;SDS011;25336;59.944;11.010;2023-05-29T04:29:38;3.22;;;1.40;;
39654;SDS011;25336;59.944;11.010;2023-05-29T04:32:05;1.30;;;1.10;;
39654;SDS011;25336;59.944;11.010;2023-05-29T04:34:33;3.50;;;1.50;;
39654;SDS011;25336;59.944;11.010;2023-05-29T04:36:59;3.42;;;1.50;;
39654;SDS011;25336;59.944;11.010;2023-05-29T04:39:25;2.92;;;1.33;;
39654;SDS011;25336;59.944;11.010;2023-05-29T04:41:51;4.88;;;1.48;;
39654;SDS011;25336;59.944;11.010;2023-05-29T04:44:17;3.70;;;1.45;;
39654;SDS011;25336;59.944;11.010;2023-05-29T04:46:43;5.60;;;1.90;;
39654;SDS011;25336;59.944;11.010;2023-05-29T04:49:10;1.85;;;1.38;;
39654;SDS011;25336;59.944;11.010;2023-05-29T04:51:37;4.07;;;1.42;;
39654;SDS011;25336;59.944;11.010;2023-05-29T04:54:05;2.50;;;1.23;;
39654;SDS011;25336;59.944;11.010;2023-05-29T04:56:31;3.38;;;1.65;;
39654;SDS011;25336;59.944;11.010;2023-05-29T04:58:57;2.75;;;1.40;;
39654;SDS011;25336;59.944;11.010;2023-05-29T05:01:23;3.47;;;1.40;;
39654;SDS011;25336;59.944;11.010;2023-05-29T05:03:50;2.72;;;1.33;;
39654;SDS011;25336;59.944;11.010;2023-05-29T05:06:19;2.92;;;1.55;;
39654;SDS011;25336;59.944;11.010;2023-05-29T05:08:45;5.15;;;1.70;;
39654;SDS011;25336;59.944;11.010;2023-05-29T05:11:10;4.95;;;1.50;;
39654;SDS011;25336;59.944;11.010;2023-05-29T05:13:37;4.13;;;1.52;;
39654;SDS011;25336;59.944;11.010;2023-05-29T05:16:03;3.78;;;1.52;;
39654;SDS011;25336;59.944;11.010;2023-05-29T05:18:28;3.55;;;2.10;;
39654;SDS011;25336;59.944;11.010;2023-05-29T05:20:54;2.35;;;1.40;;
39654;SDS011;25336;59.944;11.010;2023-05-29T05:23:20;3.05;;;1.60;;
39654;SDS011;25336;59.944;11.010;2023-05-29T05:25:45;6.07;;;1.70;;
39654;SDS011;25336;59.944;11.010;2023-05-29T05:28:11;2.47;;;1.70;;
39654;SDS011;25336;59.944;11.010;2023-05-29T05:30:38;3.05;;;1.75;;
39654;SDS011;25336;59.944;11.010;2023-05-29T05:33:03;4.15;;;1.60;;
39654;SDS011;25336;59.944;11.010;2023-05-29T05:35:29;3.70;;;1.50;;
39654;SDS011;25336;59.944;11.010;2023-05-29T05:37:54;2.45;;;1.40;;
39654;SDS011;25336;59.944;11.010;2023-05-29T05:40:23;5.38;;;1.95;;
39654;SDS011;25336;59.944;11.010;2023-05-29T05:42:49;5.22;;;1.75;;
39654;SDS011;25336;59.944;11.010;2023-05-29T05:45:14;2.92;;;1.50;;
39654;SDS011;25336;59.944;11.010;2023-05-29T05:47:40;3.50;;;2.28;;
39654;SDS011;25336;59.944;11.010;2023-05-29T05:50:05;4.72;;;1.63;;
39654;SDS011;25336;59.944;11.010;2023-05-29T05:52:32;3.42;;;1.63;;
39654;SDS011;25336;59.944;11.010;2023-05-29T05:54:58;3.35;;;1.38;;
39654;SDS011;25336;59.944;11.010;2023-05-29T05:57:24;2.58;;;1.55;;
39654;SDS011;25336;59.944;11.010;2023-05-29T05:59:50;1.95;;;1.42;;
39654;SDS011;25336;59.944;11.010;2023-05-29T06:02:16;4.72;;;1.52;;
39654;SDS011;25336;59.944;11.010;2023-05-29T06:04:41;6.22;;;1.75;;
39654;SDS011;25336;59.944;11.010;2023-05-29T06:07:08;4.53;;;1.95;;
39654;SDS011;25336;59.944;11.010;2023-05-29T06:09:34;3.97;;;1.58;;
39654;SDS011;25336;59.944;11.010;2023-05-29T06:11:59;6.32;;;1.63;;
39654;SDS011;25336;59.944;11.010;2023-05-29T06:14:25;3.22;;;1.40;;
39654;SDS011;25336;59.944;11.010;2023-05-29T06:16:51;5.35;;;1.80;;
39654;SDS011;25336;59.944;11.010;2023-05-29T06:19:17;5.97;;;1.45;;
39654;SDS011;25336;59.944;11.010;2023-05-29T06:21:42;4.95;;;1.88;;
39654;SDS011;25336;59.944;11.010;2023-05-29T06:24:08;4.10;;;1.45;;
39654;SDS011;25336;59.944;11.010;2023-05-29T06:26:33;7.82;;;1.85;;
39654;SDS011;25336;59.944;11.010;2023-05-29T06:29:01;5.13;;;1.67;;
39654;SDS011;25336;59.944;11.010;2023-05-29T06:31:27;4.38;;;1.60;;
39654;SDS011;25336;59.944;11.010;2023-05-29T06:33:53;5.97;;;2.20;;
39654;SDS011;25336;59.944;11.010;2023-05-29T06:36:19;4.05;;;1.48;;
39654;SDS011;25336;59.944;11.010;2023-05-29T06:38:48;2.33;;;1.55;;
39654;SDS011;25336;59.944;11.010;2023-05-29T06:41:15;4.05;;;1.67;;
39654;SDS011;25336;59.944;11.010;2023-05-29T06:43:41;4.13;;;1.50;;
39654;SDS011;25336;59.944;11.010;2023-05-29T06:46:07;4.82;;;1.63;;
39654;SDS011;25336;59.944;11.010;2023-05-29T06:48:33;5.03;;;1.38;;
39654;SDS011;25336;59.944;11.010;2023-05-29T06:51:02;3.40;;;1.30;;
39654;SDS011;25336;59.944;11.010;2023-05-29T06:53:34;4.25;;;2.00;;
39654;SDS011;25336;59.944;11.010;2023-05-29T06:56:01;5.13;;;1.80;;
39654;SDS011;25336;59.944;11.010;2023-05-29T06:58:27;4.35;;;1.77;;
39654;SDS011;25336;59.944;11.010;2023-05-29T07:00:52;3.22;;;1.90;;
39654;SDS011;25336;59.944;11.010;2023-05-29T07:03:18;6.15;;;1.58;;
39654;SDS011;25336;59.944;11.010;2023-05-29T07:05:43;5.50;;;1.65;;
39654;SDS011;25336;59.944;11.010;2023-05-29T07:08:09;2.42;;;1.70;;
39654;SDS011;25336;59.944;11.010;2023-05-29T07:10:35;6.00;;;1.88;;
39654;SDS011;25336;59.944;11.010;2023-05-29T07:13:00;4.40;;;1.60;;
39654;SDS011;25336;59.944;11.010;2023-05-29T07:15:26;8.82;;;1.65;;
39654;SDS011;25336;59.944;11.010;2023-05-29T07:17:51;4.75;;;1.77;;
39654;SDS011;25336;59.944;11.010;2023-05-29T07:20:17;3.33;;;1.55;;
39654;SDS011;25336;59.944;11.010;2023-05-29T07:22:45;4.22;;;1.65;;
39654;SDS011;25336;59.944;11.010;2023-05-29T07:25:11;3.30;;;2.08;;
39654;SDS011;25336;59.944;11.010;2023-05-29T07:27:37;3.35;;;1.30;;
39654;SDS011;25336;59.944;11.010;2023-05-29T07:30:03;5.03;;;2.13;;
39654;SDS011;25336;59.944;11.010;2023-05-29T07:32:30;5.07;;;2.03;;
39654;SDS011;25336;59.944;11.010;2023-05-29T07:34:56;3.55;;;1.88;;
39654;SDS011;25336;59.944;11.010;2023-05-29T07:37:21;5.82;;;1.92;;
39654;SDS011;25336;59.944;11.010;2023-05-29T07:39:47;3.80;;;1.80;;
39654;SDS011;25336;59.944;11.010;2023-05-29T07:42:13;4.25;;;1.73;;
39654;SDS011;25336;59.944;11.010;2023-05-29T07:44:38;4.53;;;1.80;;
39654;SDS011;25336;59.944;11.010;2023-05-29T07:47:06;3.28;;;1.58;;
39654;SDS011;25336;59.944;11.010;2023-05-29T07:49:32;4.60;;;1.80;;
39654;SDS011;25336;59.944;11.010;2023-05-29T07:51:58;6.55;;;1.60;;
39654;SDS011;25336;59.944;11.010;2023-05-29T07:54:23;5.97;;;1.80;;
39654;SDS011;25336;59.944;11.010;2023-05-29T07:56:49;6.10;;;1.98;;
39654;SDS011;25336;59.944;11.010;2023-05-29T07:59:15;3.80;;;1.73;;
39654;SDS011;25336;59.944;11.010;2023-05-29T08:01:42;2.63;;;1.40;;
39654;SDS011;25336;59.944;11.010;2023-05-29T08:04:08;6.93;;;2.33;;
39654;SDS011;25336;59.944;11.010;2023-05-29T08:06:34;5.35;;;1.80;;
39654;SDS011;25336;59.944;11.010;2023-05-29T08:09:01;4.22;;;1.50;;
39654;SDS011;25336;59.944;11.010;2023-05-29T08:11:28;5.68;;;1.88;;
39654;SDS011;25336;59.944;11.010;2023-05-29T08:13:53;3.67;;;1.48;;
39654;SDS011;25336;59.944;11.010;2023-05-29T08:16:19;3.63;;;1.75;;
39654;SDS011;25336;59.944;11.010;2023-05-29T08:18:47;4.47;;;1.77;;
39654;SDS011;25336;59.944;11.010;2023-05-29T08:21:12;4.95;;;2.17;;
39654;SDS011;25336;59.944;11.010;2023-05-29T08:23:38;5.85;;;1.88;;
39654;SDS011;25336;59.944;11.010;2023-05-29T08:26:04;5.20;;;1.85;;
39654;SDS011;25336;59.944;11.010;2023-05-29T08:28:29;2.83;;;1.63;;
39654;SDS011;25336;59.944;11.010;2023-05-29T08:30:55;2.55;;;1.48;;
39654;SDS011;25336;59.944;11.010;2023-05-29T08:33:21;6.10;;;1.83;;
39654;SDS011;25336;59.944;11.010;2023-05-29T08:35:46;7.68;;;2.47;;
39654;SDS011;25336;59.944;11.010;2023-05-29T08:38:12;4.97;;;1.83;;
39654;SDS011;25336;59.944;11.010;2023-05-29T08:40:37;3.55;;;1.75;;
39654;SDS011;25336;59.944;11.010;2023-05-29T08:43:21;4.15;;;1.92;;
39654;SDS011;25336;59.944;11.010;2023-05-29T08:45:48;4.18;;;2.03;;
39654;SDS011;25336;59.944;11.010;2023-05-29T08:48:18;9.70;;;2.00;;
39654;SDS011;25336;59.944;11.010;2023-05-29T08:50:47;6.57;;;1.67;;
39654;SDS011;25336;59.944;11.010;2023-05-29T08:53:13;7.53;;;2.25;;
39654;SDS011;25336;59.944;11.010;2023-05-29T08:55:40;5.43;;;1.60;;
39654;SDS011;25336;59.944;11.010;2023-05-29T08:58:06;9.75;;;1.75;;
39654;SDS011;25336;59.944;11.010;2023-05-29T09:00:33;3.90;;;1.50;;
39654;SDS011;25336;59.944;11.010;2023-05-29T09:02:59;5.95;;;1.73;;
39654;SDS011;25336;59.944;11.010;2023-05-29T09:05:25;4.07;;;1.63;;
39654;SDS011;25336;59.944;11.010;2023-05-29T09:07:54;5.32;;;2.92;;
39654;SDS011;25336;59.944;11.010;2023-05-29T09:10:20;4.03;;;1.90;;
39654;SDS011;25336;59.944;11.010;2023-05-29T09:12:47;4.15;;;1.70;;
39654;SDS011;25336;59.944;11.010;2023-05-29T09:15:19;3.42;;;1.42;;
39654;SDS011;25336;59.944;11.010;2023-05-29T09:17:56;4.28;;;1.67;;
39654;SDS011;25336;59.944;11.010;2023-05-29T09:20:22;5.20;;;1.85;;
39654;SDS011;25336;59.944;11.010;2023-05-29T09:22:55;4.65;;;1.85;;
39654;SDS011;25336;59.944;11.010;2023-05-29T09:25:26;3.33;;;1.33;;
39654;SDS011;25336;59.944;11.010;2023-05-29T09:28:00;7.00;;;1.55;;
39654;SDS011;25336;59.944;11.010;2023-05-29T09:30:31;4.85;;;1.80;;
39654;SDS011;25336;59.944;11.010;2023-05-29T09:32:59;6.30;;;1.90;;
39654;SDS011;25336;59.944;11.010;2023-05-29T09:35:26;7.28;;;2.13;;
39654;SDS011;25336;59.944;11.010;2023-05-29T09:37:57;5.57;;;1.67;;
39654;SDS011;25336;59.944;11.010;2023-05-29T09:40:22;5.22;;;2.25;;
39654;SDS011;25336;59.944;11.010;2023-05-29T09:42:48;4.18;;;2.10;;
39654;SDS011;25336;59.944;11.010;2023-05-29T09:45:16;4.20;;;2.00;;
39654;SDS011;25336;59.944;11.010;2023-05-29T09:47:42;5.18;;;2.63;;
39654;SDS011;25336;59.944;11.010;2023-05-29T09:50:17;6.75;;;2.40;;
39654;SDS011;25336;59.944;11.010;2023-05-29T09:52:45;3.75;;;2.00;;
39654;SDS011;25336;59.944;11.010;2023-05-29T09:55:12;5.45;;;1.73;;
39654;SDS011;25336;59.944;11.010;2023-05-29T09:57:44;2.90;;;1.45;;
39654;SDS011;25336;59.944;11.010;2023-05-29T10:00:11;5.43;;;1.80;;
39654;SDS011;25336;59.944;11.010;2023-05-29T10:02:38;5.95;;;2.17;;
39654;SDS011;25336;59.944;11.010;2023-05-29T10:05:08;9.23;;;1.73;;
39654;SDS011;25336;59.944;11.010;2023-05-29T10:07:36;5.63;;;2.03;;
39654;SDS011;25336;59.944;11.010;2023-05-29T10:10:05;4.03;;;1.95;;
39654;SDS011;25336;59.944;11.010;2023-05-29T10:12:55;4.55;;;1.92;;
39654;SDS011;25336;59.944;11.010;2023-05-29T10:15:20;4.63;;;1.65;;
39654;SDS011;25336;59.944;11.010;2023-05-29T10:20:31;3.50;;;1.70;;
39654;SDS011;25336;59.944;11.010;2023-05-29T10:22:59;2.47;;;1.30;;
39654;SDS011;25336;59.944;11.010;2023-05-29T10:25:26;4.05;;;1.52;;
39654;SDS011;25336;59.944;11.010;2023-05-29T10:27:55;3.97;;;1.80;;
39654;SDS011;25336;59.944;11.010;2023-05-29T10:30:39;4.10;;;1.40;;
39654;SDS011;25336;59.944;11.010;2023-05-29T10:36:04;4.45;;;1.50;;
39654;SDS011;25336;59.944;11.010;2023-05-29T10:38:41;3.13;;;1.60;;
39654;SDS011;25336;59.944;11.010;2023-05-29T10:43:53;4.50;;;1.92;;
39654;SDS011;25336;59.944;11.010;2023-05-29T10:46:20;4.47;;;1.75;;
39654;SDS011;25336;59.944;11.010;2023-05-29T10:48:46;3.13;;;1.50;;
39654;SDS011;25336;59.944;11.010;2023-05-29T10:51:27;2.47;;;1.50;;
39654;SDS011;25336;59.944;11.010;2023-05-29T10:53:54;4.97;;;1.60;;
39654;SDS011;25336;59.944;11.010;2023-05-29T10:56:22;2.35;;;1.45;;
39654;SDS011;25336;59.944;11.010;2023-05-29T10:58:52;5.28;;;1.90;;
39654;SDS011;25336;59.944;11.010;2023-05-29T11:01:21;5.82;;;2.45;;
39654;SDS011;25336;59.944;11.010;2023-05-29T11:03:48;2.78;;;1.20;;
39654;SDS011;25336;59.944;11.010;2023-05-29T11:06:20;2.88;;;1.17;;
39654;SDS011;25336;59.944;11.010;2023-05-29T11:08:55;4.00;;;1.48;;
39654;SDS011;25336;59.944;11.010;2023-05-29T11:13:53;3.03;;;1.63;;
39654;SDS011;25336;59.944;11.010;2023-05-29T11:18:50;4.07;;;1.40;;
39654;SDS011;25336;59.944;11.010;2023-05-29T11:24:21;2.60;;;1.50;;
39654;SDS011;25336;59.944;11.010;2023-05-29T11:26:49;3.53;;;1.55;;
39654;SDS011;25336;59.944;11.010;2023-05-29T11:29:18;2.90;;;1.17;;
39654;SDS011;25336;59.944;11.010;2023-05-29T11:32:03;2.72;;;1.15;;
39654;SDS011;25336;59.944;11.010;2023-05-29T11:34:30;2.80;;;1.50;;
39654;SDS011;25336;59.944;11.010;2023-05-29T11:37:00;2.10;;;1.00;;
39654;SDS011;25336;59.944;11.010;2023-05-29T11:39:27;3.65;;;1.23;;
39654;SDS011;25336;59.944;11.010;2023-05-29T11:41:54;1.60;;;0.93;;
39654;SDS011;25336;59.944;11.010;2023-05-29T11:44:20;2.92;;;1.13;;
39654;SDS011;25336;59.944;11.010;2023-05-29T11:46:58;1.65;;;1.02;;
39654;SDS011;25336;59.944;11.010;2023-05-29T11:49:27;1.90;;;1.05;;
39654;SDS011;25336;59.944;11.010;2023-05-29T11:54:35;3.85;;;1.77;;
39654;SDS011;25336;59.944;11.010;2023-05-29T11:57:01;3.38;;;1.42;;
39654;SDS011;25336;59.944;11.010;2023-05-29T11:59:30;4.82;;;1.10;;
39654;SDS011;25336;59.944;11.010;2023-05-29T12:01:56;1.58;;;1.20;;
39654;SDS011;25336;59.944;11.010;2023-05-29T12:04:22;4.00;;;1.35;;
39654;SDS011;25336;59.944;11.010;2023-05-29T12:06:48;3.92;;;1.48;;
39654;SDS011;25336;59.944;11.010;2023-05-29T12:09:26;2.22;;;1.48;;
39654;SDS011;25336;59.944;11.010;2023-05-29T12:11:53;2.33;;;1.00;;
39654;SDS011;25336;59.944;11.010;2023-05-29T12:14:29;1.58;;;1.15;;
39654;SDS011;25336;59.944;11.010;2023-05-29T12:16:55;2.45;;;1.17;;
39654;SDS011;25336;59.944;11.010;2023-05-29T12:19:20;3.17;;;1.40;;
39654;SDS011;25336;59.944;11.010;2023-05-29T12:21:46;1.23;;;1.02;;
39654;SDS011;25336;59.944;11.010;2023-05-29T12:24:12;1.33;;;0.90;;
39654;SDS011;25336;59.944;11.010;2023-05-29T12:26:38;3.03;;;1.10;;
39654;SDS011;25336;59.944;11.010;2023-05-29T12:29:04;2.58;;;1.15;;
39654;SDS011;25336;59.944;11.010;2023-05-29T12:31:30;2.35;;;1.10;;
39654;SDS011;25336;59.944;11.010;2023-05-29T12:34:00;3.70;;;1.13;;
39654;SDS011;25336;59.944;11.010;2023-05-29T12:36:46;4.70;;;1.60;;
39654;SDS011;25336;59.944;11.010;2023-05-29T12:39:12;2.88;;;1.63;;
39654;SDS011;25336;59.944;11.010;2023-05-29T12:41:38;2.13;;;1.00;;
39654;SDS011;25336;59.944;11.010;2023-05-29T12:44:05;2.15;;;1.10;;
39654;SDS011;25336;59.944;11.010;2023-05-29T12:46:41;3.67;;;1.42;;
39654;SDS011;25336;59.944;11.010;2023-05-29T12:49:17;3.03;;;1.17;;
39654;SDS011;25336;59.944;11.010;2023-05-29T12:51:46;2.35;;;1.10;;
39654;SDS011;25336;59.944;11.010;2023-05-29T12:54:13;2.40;;;0.80;;
39654;SDS011;25336;59.944;11.010;2023-05-29T12:56:40;2.97;;;1.25;;
39654;SDS011;25336;59.944;11.010;2023-05-29T12:59:06;1.58;;;0.98;;
39654;SDS011;25336;59.944;11.010;2023-05-29T13:01:33;1.85;;;1.10;;
39654;SDS011;25336;59.944;11.010;2023-05-29T13:03:58;2.35;;;1.15;;
39654;SDS011;25336;59.944;11.010;2023-05-29T13:06:24;2.33;;;1.23;;
39654;SDS011;25336;59.944;11.010;2023-05-29T13:08:50;3.20;;;1.17;;
39654;SDS011;25336;59.944;11.010;2023-05-29T13:11:15;1.88;;;1.15;;
39654;SDS011;25336;59.944;11.010;2023-05-29T13:13:41;3.38;;;1.42;;
39654;SDS011;25336;59.944;11.010;2023-05-29T13:16:07;3.38;;;1.40;;
39654;SDS011;25336;59.944;11.010;2023-05-29T13:18:33;3.42;;;1.05;;
39654;SDS011;25336;59.944;11.010;2023-05-29T13:20:59;2.38;;;1.30;;
39654;SDS011;25336;59.944;11.010;2023-05-29T13:23:25;4.32;;;1.40;;
39654;SDS011;25336;59.944;11.010;2023-05-29T13:25:50;2.65;;;1.10;;
39654;SDS011;25336;59.944;11.010;2023-05-29T13:28:16;3.20;;;1.80;;
39654;SDS011;25336;59.944;11.010;2023-05-29T13:30:42;2.65;;;1.45;;
39654;SDS011;25336;59.944;11.010;2023-05-29T13:33:07;2.55;;;1.52;;
39654;SDS011;25336;59.944;11.010;2023-05-29T13:35:33;2.95;;;1.30;;
39654;SDS011;25336;59.944;11.010;2023-05-29T13:37:58;3.45;;;1.30;;
39654;SDS011;25336;59.944;11.010;2023-05-29T13:40:24;2.08;;;1.17;;
39654;SDS011;25336;59.944;11.010;2023-05-29T13:42:50;2.15;;;1.00;;
39654;SDS011;25336;59.944;11.010;2023-05-29T13:45:16;1.73;;;1.00;;
39654;SDS011;25336;59.944;11.010;2023-05-29T13:47:42;3.47;;;1.25;;
39654;SDS011;25336;59.944;11.010;2023-05-29T13:50:07;2.95;;;1.33;;
39654;SDS011;25336;59.944;11.010;2023-05-29T13:52:33;1.67;;;0.95;;
39654;SDS011;25336;59.944;11.010;2023-05-29T13:54:59;2.00;;;1.00;;
39654;SDS011;25336;59.944;11.010;2023-05-29T13:57:29;2.13;;;1.10;;
39654;SDS011;25336;59.944;11.010;2023-05-29T13:59:56;1.27;;;0.93;;
39654;SDS011;25336;59.944;11.010;2023-05-29T14:02:21;2.47;;;1.15;;
39654;SDS011;25336;59.944;11.010;2023-05-29T14:04:47;2.47;;;1.02;;
39654;SDS011;25336;59.944;11.010;2023-05-29T14:07:13;4.57;;;1.73;;
39654;SDS011;25336;59.944;11.010;2023-05-29T14:09:39;3.33;;;1.42;;
39654;SDS011;25336;59.944;11.010;2023-05-29T14:12:04;3.03;;;1.55;;
39654;SDS011;25336;59.944;11.010;2023-05-29T14:14:32;3.58;;;1.02;;
39654;SDS011;25336;59.944;11.010;2023-05-29T14:16:58;1.95;;;1.10;;
39654;SDS011;25336;59.944;11.010;2023-05-29T14:19:23;0.88;;;0.60;;
39654;SDS011;25336;59.944;11.010;2023-05-29T14:21:50;1.88;;;1.13;;
39654;SDS011;25336;59.944;11.010;2023-05-29T14:24:16;2.88;;;0.93;;
39654;SDS011;25336;59.944;11.010;2023-05-29T14:26:43;1.58;;;1.17;;
39654;SDS011;25336;59.944;11.010;2023-05-29T14:29:11;1.27;;;1.00;;
39654;SDS011;25336;59.944;11.010;2023-05-29T14:31:38;1.17;;;0.70;;
39654;SDS011;25336;59.944;11.010;2023-05-29T14:34:04;1.88;;;0.80;;
39654;SDS011;25336;59.944;11.010;2023-05-29T14:36:30;1.15;;;0.70;;
39654;SDS011;25336;59.944;11.010;2023-05-29T14:38:56;2.60;;;1.08;;
39654;SDS011;25336;59.944;11.010;2023-05-29T14:41:21;1.42;;;0.70;;
39654;SDS011;25336;59.944;11.010;2023-05-29T14:43:47;1.63;;;0.90;;
39654;SDS011;25336;59.944;11.010;2023-05-29T14:46:12;1.45;;;1.00;;
39654;SDS011;25336;59.944;11.010;2023-05-29T14:48:38;1.23;;;0.68;;
39654;SDS011;25336;59.944;11.010;2023-05-29T14:51:04;1.13;;;0.73;;
39654;SDS011;25336;59.944;11.010;2023-05-29T14:53:30;4.78;;;0.75;;
39654;SDS011;25336;59.944;11.010;2023-05-29T14:55:56;2.53;;;1.00;;
39654;SDS011;25336;59.944;11.010;2023-05-29T14:58:22;2.53;;;0.82;;
39654;SDS011;25336;59.944;11.010;2023-05-29T15:00:48;2.05;;;0.60;;
39654;SDS011;25336;59.944;11.010;2023-05-29T15:03:13;2.33;;;0.80;;